Terminal Aerodrome Forecast
Issued by NWS

Home | Current Version | Previous Version | Text Only | Print | Product List | Glossary On
Versions: 1 2 3 4 5 6 7 8 9 10 11 12 13 14 15
000
FTUS42 KGSP 260531
TAFGMU
TAF
KGMU 260531Z 2606/2706 16005KT P6SM OVC045
     FM260800 17004KT P6SM OVC021
     FM261000 18004KT P6SM OVC018
      TEMPO 2610/2614 OVC008
     FM261600 20005KT P6SM OVC035 PROB30 2616/2618 4SM TSRA OVC025CB
     FM261800 22006KT P6SM OVC040 PROB30 2618/2624 4SM TSRA OVC030CB
     FM270000 15003KT P6SM VCTS OVC050CB=

USA.gov is the U.S. government's official web portal to all federal, state and local government web resources and services.